createdAt,value
2023-03-25T00:01:33.096Z,76.23
2023-03-25T00:08:13.625Z,76.05
2023-03-25T00:10:42.831Z,75.88
2023-03-25T00:13:13.678Z,76.16
2023-03-25T00:15:48.176Z,76.04
2023-03-25T00:18:19.395Z,76.29
2023-03-25T00:20:51.023Z,76.09
2023-03-25T00:23:21.464Z,76.10
2023-03-25T00:25:50.136Z,76.03
2023-03-25T00:28:18.875Z,76.05
2023-03-25T00:30:47.829Z,76.08
2023-03-25T00:33:18.327Z,76.19
2023-03-25T00:35:52.869Z,76.02
2023-03-25T00:38:24.650Z,75.89
2023-03-25T00:40:53.305Z,75.91
2023-03-25T00:43:21.770Z,75.85
2023-03-25T00:45:50.103Z,75.83
2023-03-25T00:48:23.979Z,76.16
2023-03-25T00:50:52.062Z,76.34
2023-03-25T00:53:24.448Z,76.28
2023-03-25T00:55:58.246Z,76.25
2023-03-25T00:58:26.482Z,76.58
2023-03-25T01:00:56.693Z,76.77
2023-03-25T01:03:26.582Z,76.76
2023-03-25T01:05:58.044Z,77.02
2023-03-25T01:08:29.799Z,77.16
2023-03-25T01:11:01.375Z,77.62
2023-03-25T01:13:29.581Z,77.53
2023-03-25T01:15:57.972Z,77.56
2023-03-25T01:18:26.323Z,78.02
2023-03-25T01:20:54.579Z,78.28
2023-03-25T01:23:22.890Z,78.59
2023-03-25T01:25:51.342Z,78.76
2023-03-25T01:28:20.783Z,78.94
2023-03-25T01:30:48.930Z,78.97
2023-03-25T01:33:17.844Z,78.82
2023-03-25T01:35:46.161Z,78.84
2023-03-25T01:38:14.254Z,78.48
2023-03-25T01:40:46.097Z,78.58
2023-03-25T01:43:15.474Z,78.48
2023-03-25T01:45:45.373Z,78.34
2023-03-25T01:48:26.567Z,78.23
2023-03-25T01:50:59.144Z,78.06
2023-03-25T01:53:30.917Z,77.84
2023-03-25T01:56:02.951Z,77.65
2023-03-25T01:58:31.330Z,77.00
2023-03-25T02:01:03.475Z,76.78
2023-03-25T02:03:37.423Z,76.31
2023-03-25T02:06:10.515Z,75.76
2023-03-25T02:08:39.963Z,75.60
2023-03-25T02:11:11.076Z,75.39
2023-03-25T02:13:39.780Z,74.87
2023-03-25T02:16:20.560Z,74.57
2023-03-25T02:19:11.958Z,74.09
2023-03-25T02:21:52.895Z,74.17
2023-03-25T02:24:43.761Z,73.90
2023-03-25T02:27:42.168Z,73.36
2023-03-25T02:30:29.175Z,73.15
2023-03-25T02:33:23.188Z,73.05
2023-03-25T02:36:13.271Z,72.75
2023-03-25T02:39:00.038Z,72.65
2023-03-25T02:41:37.357Z,72.64
2023-03-25T02:44:25.060Z,72.67
2023-03-25T02:46:55.574Z,72.38
2023-03-25T02:49:36.429Z,71.97
2023-03-25T02:52:20.562Z,71.78
2023-03-25T02:54:49.231Z,71.47
2023-03-25T02:57:19.508Z,71.49
2023-03-25T02:59:48.975Z,71.16
2023-03-25T03:02:19.506Z,70.78
2023-03-25T03:04:49.464Z,70.83
2023-03-25T03:07:30.803Z,70.63
2023-03-25T03:10:26.899Z,70.44
2023-03-25T03:13:08.988Z,70.20
2023-03-25T03:15:59.471Z,69.92
2023-03-25T03:18:34.458Z,69.80
2023-03-25T03:21:23.402Z,69.72
2023-03-25T03:24:15.247Z,69.89
2023-03-25T03:26:48.675Z,69.95
2023-03-25T03:29:19.490Z,69.85
2023-03-25T03:32:05.088Z,70.08
2023-03-25T03:34:47.244Z,70.56
2023-03-25T03:37:21.389Z,71.31
2023-03-25T03:39:49.775Z,72.03
2023-03-25T03:42:23.575Z,72.29
2023-03-25T03:44:58.378Z,72.49
2023-03-25T03:47:29.296Z,72.87
2023-03-25T03:50:09.328Z,73.33
2023-03-25T03:52:40.331Z,73.52
2023-03-25T03:55:53.164Z,73.53
2023-03-25T03:58:43.947Z,73.45
2023-03-25T04:01:15.387Z,73.50
2023-03-25T04:03:53.458Z,73.75
2023-03-25T04:06:35.550Z,73.57
2023-03-25T04:09:42.026Z,73.38
2023-03-25T04:12:18.776Z,73.29
2023-03-25T04:14:48.012Z,73.08
2023-03-25T04:17:17.743Z,73.12
2023-03-25T04:19:48.930Z,73.25
2023-03-25T04:22:19.832Z,72.68
2023-03-25T04:24:50.095Z,72.28
2023-03-25T04:27:18.943Z,72.22
2023-03-25T04:29:47.855Z,72.13
2023-03-25T04:32:17.852Z,72.25
2023-03-25T04:34:47.128Z,72.08
2023-03-25T04:37:16.556Z,72.23
2023-03-25T04:39:44.781Z,72.27
2023-03-25T04:42:17.977Z,72.44
2023-03-25T04:44:46.723Z,72.51
2023-03-25T04:47:16.416Z,72.68
2023-03-25T04:49:45.996Z,72.85
2023-03-25T04:52:14.806Z,72.81
2023-03-25T04:54:46.493Z,73.30
2023-03-25T04:57:15.484Z,73.50
2023-03-25T04:59:44.111Z,73.81
2023-03-25T05:02:13.714Z,73.92
2023-03-25T05:04:43.133Z,74.16
2023-03-25T05:07:16.857Z,74.15
2023-03-25T05:09:46.304Z,74.10
2023-03-25T05:12:14.330Z,73.84
2023-03-25T05:14:44.631Z,73.88
2023-03-25T05:17:13.445Z,74.03
2023-03-25T05:19:43.917Z,73.83
2023-03-25T05:22:13.203Z,73.60
2023-03-25T05:24:45.359Z,73.58
2023-03-25T05:27:20.382Z,73.40
2023-03-25T05:29:48.592Z,73.51
2023-03-25T05:32:17.913Z,73.51
2023-03-25T05:34:46.906Z,73.48
2023-03-25T05:37:15.178Z,73.32
2023-03-25T05:39:48.242Z,73.34
2023-03-25T05:42:23.020Z,73.64
2023-03-25T05:44:55.159Z,73.95
2023-03-25T05:47:24.546Z,73.96
2023-03-25T05:49:53.092Z,74.37
2023-03-25T05:52:24.770Z,74.57
2023-03-25T05:54:52.990Z,74.06
2023-03-25T05:57:22.460Z,73.98
2023-03-25T05:59:52.352Z,73.91
2023-03-25T06:02:20.696Z,73.96
2023-03-25T06:04:50.599Z,74.11
2023-03-25T06:07:22.511Z,74.04
2023-03-25T06:09:55.984Z,74.09
2023-03-25T06:12:27.779Z,74.57
2023-03-25T06:14:55.981Z,74.74
2023-03-25T06:17:24.447Z,75.17
2023-03-25T06:19:52.581Z,75.18
2023-03-25T06:22:22.241Z,75.16
2023-03-25T06:24:53.277Z,75.27
2023-03-25T06:27:22.128Z,75.32
2023-03-25T06:29:51.044Z,75.59
2023-03-25T06:32:19.627Z,75.87
2023-03-25T06:34:47.802Z,76.19
2023-03-25T06:37:16.139Z,76.14
2023-03-25T06:39:50.016Z,76.55
2023-03-25T06:42:24.102Z,76.75
2023-03-25T06:45:09.200Z,76.95
2023-03-25T06:47:46.146Z,77.38
2023-03-25T06:50:14.392Z,77.32
2023-03-25T06:52:42.508Z,77.32
2023-03-25T06:55:12.240Z,77.69
2023-03-25T06:57:42.287Z,77.85
2023-03-25T07:00:14.814Z,78.12
2023-03-25T07:02:48.837Z,78.49
2023-03-25T07:05:17.286Z,78.43
2023-03-25T07:07:45.798Z,78.59
2023-03-25T07:10:13.983Z,78.87
2023-03-25T07:12:42.288Z,79.34
2023-03-25T07:15:13.152Z,79.35
2023-03-25T07:17:43.372Z,78.91
2023-03-25T07:20:15.798Z,78.56
2023-03-25T07:22:46.331Z,78.21
2023-03-25T07:25:15.832Z,78.01
2023-03-25T07:27:44.405Z,77.80
2023-03-25T07:30:15.905Z,77.74
2023-03-25T07:32:46.299Z,77.67
2023-03-25T07:35:15.516Z,77.34
2023-03-25T07:37:45.623Z,77.12
2023-03-25T07:40:13.742Z,76.46
2023-03-25T07:42:42.010Z,75.73
2023-03-25T07:45:43.596Z,75.20
2023-03-25T07:48:16.921Z,74.83
2023-03-25T07:50:46.227Z,74.51
2023-03-25T07:53:16.406Z,74.42
2023-03-25T07:55:45.777Z,74.02
2023-03-25T07:58:14.386Z,73.50
2023-03-25T08:00:42.711Z,73.09
2023-03-25T08:03:13.267Z,73.12
2023-03-25T08:05:47.225Z,73.12
2023-03-25T08:08:15.675Z,73.02
2023-03-25T08:10:44.369Z,72.87
2023-03-25T08:13:12.866Z,72.79
2023-03-25T08:15:41.585Z,72.59
2023-03-25T08:18:09.786Z,72.46
2023-03-25T08:20:38.149Z,72.58
2023-03-25T08:23:10.748Z,72.57
2023-03-25T08:25:39.360Z,72.44
2023-03-25T08:28:08.637Z,72.12
2023-03-25T08:30:38.585Z,71.97
2023-03-25T08:33:07.525Z,71.67
2023-03-25T08:35:56.721Z,71.04
2023-03-25T08:38:25.662Z,70.68
2023-03-25T08:40:56.098Z,70.49
2023-03-25T08:43:27.875Z,70.08
2023-03-25T08:45:59.395Z,69.83
2023-03-25T08:48:27.602Z,69.81
2023-03-25T08:50:59.565Z,69.75
2023-03-25T08:53:28.143Z,69.83
2023-03-25T08:55:57.502Z,70.11
2023-03-25T08:58:26.004Z,70.21
2023-03-25T09:00:56.086Z,70.23
2023-03-25T09:03:24.639Z,70.17
2023-03-25T09:05:55.876Z,70.21
2023-03-25T09:08:24.833Z,70.05
2023-03-25T09:10:55.416Z,70.07
2023-03-25T09:13:26.873Z,70.00
2023-03-25T09:15:55.218Z,69.86
2023-03-25T09:18:28.283Z,69.87
2023-03-25T09:21:00.196Z,69.88
2023-03-25T09:23:28.886Z,69.78
2023-03-25T09:26:00.497Z,69.71
2023-03-25T09:28:29.996Z,69.62
2023-03-25T09:30:58.476Z,69.39
2023-03-25T09:33:28.065Z,69.21
2023-03-25T09:35:56.588Z,68.91
2023-03-25T09:38:28.445Z,69.03
2023-03-25T09:40:56.900Z,69.12
2023-03-25T09:44:02.700Z,68.84
2023-03-25T09:46:30.965Z,68.76
2023-03-25T09:48:59.690Z,68.55
2023-03-25T09:51:36.137Z,68.46
2023-03-25T09:54:27.944Z,68.44
2023-03-25T09:56:58.075Z,68.37
2023-03-25T09:59:42.950Z,68.37
2023-03-25T10:02:42.061Z,68.57
2023-03-25T10:05:25.939Z,68.70
2023-03-25T10:08:28.141Z,68.99
2023-03-25T10:11:06.817Z,69.01
2023-03-25T10:13:43.982Z,69.30
2023-03-25T10:17:01.955Z,69.38
2023-03-25T10:19:39.923Z,69.42
2023-03-25T10:22:19.163Z,69.57
2023-03-25T10:24:49.833Z,69.73
2023-03-25T10:27:26.869Z,69.86
2023-03-25T10:30:24.946Z,69.90
2023-03-25T10:32:57.141Z,70.09
2023-03-25T10:35:30.141Z,70.23
2023-03-25T10:38:13.838Z,69.96
2023-03-25T10:40:50.331Z,70.00
2023-03-25T10:43:26.533Z,70.29
2023-03-25T10:45:57.935Z,70.49
2023-03-25T10:48:28.178Z,70.42
2023-03-25T10:51:09.610Z,70.56
2023-03-25T10:53:40.403Z,70.61
2023-03-25T10:56:17.139Z,70.67
2023-03-25T10:58:47.189Z,70.65
2023-03-25T11:01:21.059Z,70.70
2023-03-25T11:04:11.937Z,70.59
2023-03-25T11:06:42.241Z,70.59
2023-03-25T11:09:30.746Z,70.57
2023-03-25T11:12:05.329Z,70.69
2023-03-25T11:14:37.723Z,70.74
2023-03-25T11:17:25.764Z,70.78
2023-03-25T11:20:00.874Z,70.67
2023-03-25T11:22:30.717Z,70.67
2023-03-25T11:25:07.133Z,70.57
2023-03-25T11:27:48.379Z,70.18
2023-03-25T11:30:19.456Z,69.71
2023-03-25T11:32:59.879Z,69.38
2023-03-25T11:35:30.481Z,69.04
2023-03-25T11:38:00.498Z,68.86
2023-03-25T11:40:29.742Z,68.47
2023-03-25T11:43:00.505Z,68.42
2023-03-25T11:45:39.241Z,68.17
2023-03-25T11:48:16.940Z,68.21
2023-03-25T11:50:54.549Z,68.28
2023-03-25T11:53:27.339Z,68.22
2023-03-25T11:55:56.472Z,68.25
2023-03-25T11:58:33.729Z,68.33
2023-03-25T12:01:11.304Z,68.31
2023-03-25T12:03:39.892Z,68.36
2023-03-25T12:06:19.505Z,68.24
2023-03-25T12:08:56.718Z,68.04
2023-03-25T12:11:46.972Z,67.98
2023-03-25T12:14:30.485Z,68.09
2023-03-25T12:17:11.005Z,68.00
2023-03-25T12:19:42.813Z,67.77
2023-03-25T12:22:45.316Z,67.63
2023-03-25T12:25:29.290Z,67.47
2023-03-25T12:28:19.630Z,67.36
2023-03-25T12:31:07.644Z,67.14
2023-03-25T12:33:54.919Z,66.70
2023-03-25T12:36:48.382Z,66.62
2023-03-25T12:39:42.643Z,66.69
2023-03-25T12:42:59.739Z,66.73
2023-03-25T12:45:53.496Z,66.98
2023-03-25T12:48:27.954Z,67.07
2023-03-25T12:51:22.123Z,67.44
2023-03-25T12:54:02.731Z,67.85
2023-03-25T12:56:44.588Z,68.39
2023-03-25T12:59:16.430Z,68.81
2023-03-25T13:02:30.313Z,68.99
2023-03-25T13:05:04.790Z,69.22
2023-03-25T13:08:01.808Z,69.41
2023-03-25T13:10:35.773Z,69.38
2023-03-25T13:13:09.454Z,69.51
2023-03-25T13:15:42.049Z,69.70
2023-03-25T13:18:21.846Z,70.12
2023-03-25T13:21:00.570Z,70.36
2023-03-25T13:23:29.680Z,70.29
2023-03-25T13:26:03.518Z,70.20
2023-03-25T13:28:49.614Z,70.28
2023-03-25T13:31:20.224Z,70.21
2023-03-25T13:34:23.001Z,70.10
2023-03-25T13:37:10.082Z,70.01
2023-03-25T13:39:55.790Z,69.87
2023-03-25T13:42:37.387Z,69.50
2023-03-25T13:45:05.984Z,69.45
2023-03-25T13:47:40.330Z,69.41
2023-03-25T13:50:23.516Z,69.20
2023-03-25T13:52:54.429Z,69.30
2023-03-25T13:55:34.039Z,69.25
2023-03-25T13:58:11.326Z,68.85
2023-03-25T14:01:02.045Z,68.59
2023-03-25T14:03:36.421Z,68.11
2023-03-25T14:06:25.628Z,67.91
2023-03-25T14:09:32.022Z,67.55
2023-03-25T14:12:12.080Z,67.16
2023-03-25T14:14:54.016Z,67.17
2023-03-25T14:17:23.063Z,66.87
2023-03-25T14:19:55.465Z,66.88
2023-03-25T14:22:26.417Z,66.95
2023-03-25T14:24:54.820Z,66.79
2023-03-25T14:27:34.929Z,66.83
2023-03-25T14:30:07.293Z,66.82
2023-03-25T14:32:36.637Z,66.83
2023-03-25T14:35:35.057Z,66.98
2023-03-25T14:38:09.654Z,66.75
2023-03-25T14:41:01.494Z,66.77
2023-03-25T14:43:40.297Z,66.83
2023-03-25T14:46:11.651Z,66.79
2023-03-25T14:48:46.098Z,66.91
2023-03-25T14:51:26.107Z,66.67
2023-03-25T14:54:03.489Z,66.56
2023-03-25T14:56:42.976Z,66.67
2023-03-25T14:59:17.101Z,66.53
2023-03-25T15:01:46.496Z,66.77
2023-03-25T15:04:57.208Z,66.70
2023-03-25T15:07:59.107Z,66.75
2023-03-25T15:10:36.757Z,67.75
2023-03-25T15:13:06.388Z,69.63
2023-03-25T15:15:44.469Z,70.82
2023-03-25T15:18:34.613Z,71.45
2023-03-25T15:21:09.383Z,71.73
2023-03-25T15:23:47.664Z,72.24
2023-03-25T15:26:21.264Z,72.62
2023-03-25T15:29:30.876Z,73.04
2023-03-25T15:32:13.696Z,73.65
2023-03-25T15:35:01.071Z,73.83
2023-03-25T15:38:07.204Z,74.09
2023-03-25T15:40:58.027Z,74.30
2023-03-25T15:43:42.538Z,74.70
2023-03-25T15:46:37.375Z,75.06
2023-03-25T15:49:14.959Z,75.72
2023-03-25T15:52:25.810Z,76.05
2023-03-25T15:54:57.392Z,75.93
2023-03-25T15:57:44.338Z,75.82
2023-03-25T16:00:30.142Z,75.70
2023-03-25T16:03:02.579Z,75.30
2023-03-25T16:05:31.530Z,75.11
2023-03-25T16:08:01.588Z,75.10
2023-03-25T16:10:33.393Z,74.69
2023-03-25T16:13:11.512Z,74.20
2023-03-25T16:15:39.842Z,74.38
2023-03-25T16:18:09.602Z,74.96
2023-03-25T16:20:38.048Z,75.34
2023-03-25T16:23:07.133Z,75.80
2023-03-25T16:25:38.363Z,76.02
2023-03-25T16:28:14.801Z,76.37
2023-03-25T16:30:44.483Z,76.87
2023-03-25T16:33:14.977Z,76.98
2023-03-25T16:35:57.125Z,77.55
2023-03-25T16:38:25.924Z,77.95
2023-03-25T16:41:11.357Z,78.04
2023-03-25T16:43:39.633Z,77.97
2023-03-25T16:46:09.111Z,78.20
2023-03-25T16:48:41.720Z,78.37
2023-03-25T16:51:29.345Z,78.50
2023-03-25T16:54:00.817Z,78.52
2023-03-25T16:56:30.374Z,78.95
2023-03-25T16:59:06.413Z,79.44
2023-03-25T17:01:45.196Z,79.82
2023-03-25T17:04:43.504Z,80.06
2023-03-25T17:07:15.762Z,80.76
2023-03-25T17:09:45.167Z,82.11
2023-03-25T17:12:17.274Z,83.63
2023-03-25T17:14:47.062Z,83.54
2023-03-25T17:17:21.255Z,84.50
2023-03-25T17:19:51.805Z,85.31
2023-03-25T17:22:36.477Z,84.97
2023-03-25T17:25:23.538Z,84.42
2023-03-25T17:27:58.215Z,84.47
2023-03-25T17:30:43.471Z,84.87
2023-03-25T17:33:19.511Z,85.21
2023-03-25T17:35:52.933Z,85.86
2023-03-25T17:38:28.376Z,85.93
2023-03-25T17:41:09.312Z,85.70
2023-03-25T17:43:48.074Z,86.09
2023-03-25T17:46:25.885Z,86.80
2023-03-25T17:48:57.587Z,87.40
2023-03-25T17:51:26.899Z,88.54
2023-03-25T17:53:56.163Z,89.52
2023-03-25T17:56:26.704Z,90.88
2023-03-25T17:59:02.935Z,91.77
2023-03-25T18:01:32.696Z,93.21
2023-03-25T18:04:01.290Z,93.83
2023-03-25T18:06:35.552Z,94.39
2023-03-25T18:09:04.958Z,94.84
2023-03-25T18:11:33.017Z,95.17
2023-03-25T18:14:01.683Z,96.19
2023-03-25T18:16:30.194Z,97.14
2023-03-25T18:18:58.335Z,97.95
2023-03-25T18:21:27.499Z,97.25
2023-03-25T18:23:56.118Z,96.80
2023-03-25T18:26:24.282Z,96.70
2023-03-25T18:28:52.594Z,96.59
2023-03-25T18:31:23.539Z,96.46
2023-03-25T18:33:51.758Z,96.61
2023-03-25T18:36:20.170Z,96.76
2023-03-25T18:38:48.981Z,96.86
2023-03-25T18:41:17.655Z,96.81
2023-03-25T18:43:48.753Z,96.75
2023-03-25T18:46:18.058Z,96.64
2023-03-25T18:48:48.610Z,96.57
2023-03-25T18:51:16.961Z,96.73
2023-03-25T18:53:48.964Z,96.74
2023-03-25T18:56:19.631Z,96.80
2023-03-25T18:58:53.051Z,96.93
2023-03-25T19:01:22.010Z,98.04
2023-03-25T19:03:52.596Z,99.74
2023-03-25T19:06:21.564Z,100.00
2023-03-25T19:08:51.718Z,100.00
2023-03-25T19:11:21.997Z,100.00
2023-03-25T19:13:58.495Z,100.00
2023-03-25T19:16:27.409Z,100.00
2023-03-25T19:18:55.747Z,100.00
2023-03-25T19:21:24.187Z,100.00
2023-03-25T19:23:52.927Z,100.00
2023-03-25T19:26:21.178Z,100.00
2023-03-25T19:28:50.922Z,100.00
2023-03-25T19:31:19.320Z,100.00
2023-03-25T19:33:56.485Z,100.00
2023-03-25T19:36:25.900Z,100.00
2023-03-25T19:38:56.401Z,100.00
2023-03-25T19:41:27.039Z,100.00
2023-03-25T19:43:55.465Z,100.00
2023-03-25T19:46:24.618Z,100.00
2023-03-25T19:48:53.353Z,100.00
2023-03-25T19:51:21.555Z,100.00
2023-03-25T19:53:52.352Z,100.00
2023-03-25T19:56:21.679Z,100.00
2023-03-25T19:58:49.844Z,100.00
2023-03-25T20:01:18.279Z,100.00
2023-03-25T20:03:47.969Z,100.00
2023-03-25T20:06:16.071Z,100.00
2023-03-25T20:08:46.105Z,100.00
2023-03-25T20:11:15.548Z,100.00
2023-03-25T20:13:54.750Z,100.00
2023-03-25T20:16:25.687Z,100.00
2023-03-25T20:18:54.136Z,100.00
2023-03-25T20:21:24.896Z,100.00
2023-03-25T20:23:53.340Z,100.00
2023-03-25T20:26:21.527Z,100.00
2023-03-25T20:28:49.657Z,100.00
2023-03-25T20:31:20.156Z,100.00
2023-03-25T20:33:48.658Z,100.00
2023-03-25T20:36:17.789Z,100.00
2023-03-25T20:38:56.466Z,100.00
2023-03-25T20:41:26.485Z,100.00
2023-03-25T20:43:54.702Z,100.00
2023-03-25T20:46:27.614Z,100.00
2023-03-25T20:48:56.540Z,100.00
2023-03-25T20:51:25.699Z,100.00
2023-03-25T20:53:54.274Z,100.00
2023-03-25T20:56:22.795Z,100.00
2023-03-25T20:58:51.367Z,100.00
2023-03-25T21:01:21.476Z,100.00
2023-03-25T21:03:52.104Z,100.00
2023-03-25T21:06:24.538Z,100.00
2023-03-25T21:08:54.906Z,100.00
2023-03-25T21:11:23.061Z,100.00
2023-03-25T21:13:51.614Z,100.00
2023-03-25T21:16:20.792Z,100.00
2023-03-25T21:18:50.386Z,100.00
2023-03-25T21:21:19.865Z,100.00
2023-03-25T21:23:49.350Z,100.00
2023-03-25T21:26:18.884Z,100.00
2023-03-25T21:28:48.689Z,100.00
2023-03-25T21:31:21.661Z,100.00
2023-03-25T21:33:51.425Z,100.00
2023-03-25T21:36:28.646Z,100.00
2023-03-25T21:39:04.632Z,100.00
2023-03-25T21:41:35.066Z,100.00
2023-03-25T21:44:05.216Z,100.00
2023-03-25T21:46:34.089Z,100.00
2023-03-25T21:49:04.072Z,100.00
2023-03-25T21:51:32.553Z,100.00
2023-03-25T21:54:00.941Z,100.00
2023-03-25T21:56:31.404Z,100.00
2023-03-25T21:59:01.973Z,100.00
2023-03-25T22:01:32.715Z,100.00
2023-03-25T22:04:01.489Z,100.00
2023-03-25T22:06:31.616Z,100.00
2023-03-25T22:09:05.662Z,100.00
2023-03-25T22:11:35.749Z,100.00
2023-03-25T22:14:05.727Z,100.00
2023-03-25T22:16:36.510Z,100.00
2023-03-25T22:19:06.408Z,100.00
2023-03-25T22:21:37.025Z,100.00
2023-03-25T22:24:08.010Z,100.00
2023-03-25T22:26:39.399Z,100.00
2023-03-25T22:29:09.805Z,100.00
2023-03-25T22:31:39.830Z,100.00
2023-03-25T22:34:12.942Z,100.00
2023-03-25T22:36:46.452Z,100.00
2023-03-25T22:39:15.179Z,100.00
2023-03-25T22:41:45.098Z,100.00
2023-03-25T22:44:17.164Z,100.00
2023-03-25T22:46:48.728Z,100.00
2023-03-25T22:49:17.278Z,100.00
2023-03-25T22:51:45.562Z,100.00
2023-03-25T22:54:13.942Z,100.00
2023-03-25T22:56:43.733Z,100.00
2023-03-25T22:59:12.814Z,100.00
2023-03-25T23:01:41.837Z,100.00
2023-03-25T23:04:10.508Z,100.00
2023-03-25T23:06:38.810Z,100.00
2023-03-25T23:09:09.964Z,100.00
2023-03-25T23:11:38.977Z,100.00
2023-03-25T23:14:09.104Z,100.00
2023-03-25T23:16:39.211Z,100.00
2023-03-25T23:19:09.578Z,100.00
2023-03-25T23:21:40.685Z,100.00
2023-03-25T23:24:08.847Z,100.00
2023-03-25T23:26:39.459Z,100.00
2023-03-25T23:29:10.160Z,100.00
2023-03-25T23:31:41.423Z,100.00
2023-03-25T23:34:12.657Z,100.00
2023-03-25T23:36:41.061Z,100.00
2023-03-25T23:39:11.423Z,100.00
2023-03-25T23:41:44.086Z,100.00
2023-03-25T23:44:13.282Z,100.00
2023-03-25T23:46:43.636Z,100.00
2023-03-25T23:49:11.876Z,100.00
2023-03-25T23:51:40.940Z,100.00
2023-03-25T23:54:11.742Z,100.00
2023-03-25T23:56:40.002Z,100.00
2023-03-25T23:59:09.399Z,100.00
